createdAt,value
2022-09-05T00:00:07.667Z,15.03
2022-09-05T00:02:53.430Z,15.05
2022-09-05T00:05:20.055Z,15.09
2022-09-05T00:08:16.934Z,15.10
2022-09-05T00:11:40.415Z,15.07
2022-09-05T00:14:09.234Z,15.05
2022-09-05T00:17:23.686Z,15.08
2022-09-05T00:24:28.844Z,15.04
2022-09-05T00:24:42.666Z,15.05
2022-09-05T00:26:54.691Z,15.22
2022-09-05T00:31:28.988Z,15.09
2022-09-05T00:32:40.599Z,15.11
2022-09-05T00:35:13.172Z,15.21
2022-09-05T00:37:42.715Z,15.35
2022-09-05T00:40:27.403Z,15.36
2022-09-05T00:43:07.760Z,15.13
2022-09-05T00:45:48.692Z,15.03
2022-09-05T00:48:32.463Z,15.25
2022-09-05T00:51:14.706Z,15.19
2022-09-05T00:53:56.932Z,15.07
2022-09-05T00:56:58.747Z,15.12
2022-09-05T00:59:59.026Z,15.16
2022-09-05T01:02:51.928Z,15.03
2022-09-05T01:05:56.472Z,15.12
2022-09-05T01:08:49.934Z,15.03
2022-09-05T01:11:28.229Z,15.01
2022-09-05T01:14:19.971Z,15.05
2022-09-05T01:16:52.432Z,15.02
2022-09-05T01:19:46.717Z,15.22
2022-09-05T01:22:31.525Z,15.04
2022-09-05T01:25:35.812Z,14.95
2022-09-05T01:29:16.557Z,15.01
2022-09-05T01:31:36.070Z,15.05
2022-09-05T01:34:17.714Z,15.00
2022-09-05T01:37:07.590Z,14.96
2022-09-05T01:40:14.835Z,14.87
2022-09-05T01:42:55.390Z,14.83
2022-09-05T01:45:39.400Z,14.93
2022-09-05T01:48:27.822Z,15.07
2022-09-05T01:51:28.430Z,14.96
2022-09-05T01:54:26.073Z,14.87
2022-09-05T01:57:40.293Z,14.80
2022-09-05T02:00:24.350Z,14.84
2022-09-05T02:03:28.854Z,14.89
2022-09-05T02:06:34.649Z,14.97
2022-09-05T02:09:13.964Z,14.78
2022-09-05T02:11:41.696Z,14.78
2022-09-05T02:14:27.077Z,14.88
2022-09-05T02:17:30.548Z,14.88
2022-09-05T02:20:11.257Z,14.84
2022-09-05T02:23:35.207Z,14.86
2022-09-05T02:26:12.382Z,14.84
2022-09-05T02:29:01.746Z,14.90
2022-09-05T02:31:40.695Z,14.95
2022-09-05T02:34:11.170Z,14.99
2022-09-05T02:36:48.450Z,14.97
2022-09-05T02:45:07.477Z,14.92
2022-09-05T02:45:17.868Z,14.89
2022-09-05T02:45:52.539Z,15.01
2022-09-05T02:48:58.989Z,14.96
2022-09-05T02:57:27.930Z,15.15
2022-09-05T02:57:42.872Z,14.95
2022-09-05T02:58:07.675Z,14.89
2022-09-05T03:00:23.377Z,14.90
2022-09-05T03:03:02.548Z,14.98
2022-09-05T03:05:37.255Z,15.05
2022-09-05T03:08:22.189Z,14.88
2022-09-05T03:11:50.305Z,14.94
2022-09-05T03:14:20.134Z,14.86
2022-09-05T03:17:10.711Z,14.91
2022-09-05T03:19:46.040Z,14.93
2022-09-05T03:22:26.046Z,14.96
2022-09-05T03:25:17.628Z,14.95
2022-09-05T03:28:04.724Z,14.98
2022-09-05T03:31:04.695Z,14.93
2022-09-05T03:33:34.238Z,15.07
2022-09-05T03:36:13.310Z,15.01
2022-09-05T03:38:49.433Z,15.00
2022-09-05T03:41:55.422Z,14.96
2022-09-05T03:45:34.943Z,15.01
2022-09-05T03:48:27.842Z,15.03
2022-09-05T03:57:08.630Z,14.97
2022-09-05T03:57:13.962Z,14.94
2022-09-05T03:57:43.417Z,14.97
2022-09-05T04:00:22.009Z,15.14
2022-09-05T04:08:07.190Z,15.10
2022-09-05T04:08:23.791Z,15.03
2022-09-05T04:09:12.012Z,15.13
2022-09-05T04:11:54.926Z,15.09
2022-09-05T04:14:27.377Z,15.07
2022-09-05T04:17:03.342Z,15.10
2022-09-05T04:19:41.578Z,15.07
2022-09-05T04:22:41.693Z,15.06
2022-09-05T04:25:18.861Z,15.04
2022-09-05T04:27:55.887Z,15.04
2022-09-05T04:30:39.340Z,15.05
2022-09-05T04:33:36.270Z,15.06
2022-09-05T04:36:18.885Z,15.05
2022-09-05T04:38:46.435Z,15.07
2022-09-05T04:41:39.410Z,15.11
2022-09-05T04:44:26.904Z,15.06
2022-09-05T04:47:08.464Z,15.06
2022-09-05T04:49:46.681Z,15.08
2022-09-05T04:52:43.447Z,15.08
2022-09-05T04:55:21.515Z,15.11
2022-09-05T04:58:07.477Z,15.11
2022-09-05T05:06:02.690Z,15.08
2022-09-05T05:06:15.486Z,15.06
2022-09-05T05:06:42.335Z,15.14
2022-09-05T05:09:25.154Z,15.15
2022-09-05T05:17:54.383Z,15.13
2022-09-05T05:18:14.073Z,15.12
2022-09-05T05:18:41.062Z,15.12
2022-09-05T05:21:19.580Z,15.14
2022-09-05T05:23:49.885Z,15.09
2022-09-05T05:26:25.191Z,15.08
2022-09-05T05:29:05.334Z,15.18
2022-09-05T05:31:36.115Z,15.14
2022-09-05T05:34:16.242Z,15.14
2022-09-05T05:37:02.914Z,15.20
2022-09-05T05:39:31.073Z,15.17
2022-09-05T05:42:03.216Z,15.13
2022-09-05T05:44:53.848Z,15.13
2022-09-05T05:47:36.516Z,15.10
2022-09-05T05:50:11.456Z,15.09
2022-09-05T05:52:50.872Z,15.15
2022-09-05T05:55:57.317Z,15.10
2022-09-05T05:58:51.657Z,15.18
2022-09-05T06:01:38.428Z,15.09
2022-09-05T06:04:35.257Z,15.09
2022-09-05T06:07:39.397Z,15.10
2022-09-05T06:14:51.799Z,15.09
2022-09-05T06:14:59.311Z,15.06
2022-09-05T06:16:49.283Z,15.09
2022-09-05T06:19:37.584Z,15.08
2022-09-05T06:22:47.124Z,15.05
2022-09-05T06:25:17.554Z,15.05
2022-09-05T06:28:20.102Z,15.07
2022-09-05T06:31:30.502Z,15.10
2022-09-05T06:34:07.199Z,15.12
2022-09-05T06:37:30.605Z,15.14
2022-09-05T06:40:15.907Z,15.11
2022-09-05T06:43:09.898Z,15.21
2022-09-05T06:45:58.963Z,15.13
2022-09-05T06:49:30.276Z,15.14
2022-09-05T06:51:45.028Z,15.11
2022-09-05T06:54:59.869Z,15.16
2022-09-05T06:57:45.743Z,15.19
2022-09-05T07:00:23.245Z,15.19
2022-09-05T07:03:22.734Z,15.19
2022-09-05T07:05:56.688Z,15.20
2022-09-05T07:08:34.992Z,15.24
2022-09-05T07:11:25.655Z,15.22
2022-09-05T07:14:18.556Z,15.21
2022-09-05T07:16:54.250Z,15.20
2022-09-05T07:19:54.800Z,15.29
2022-09-05T07:22:47.133Z,15.26
2022-09-05T07:25:37.222Z,15.31
2022-09-05T07:28:29.767Z,15.37
2022-09-05T07:31:08.118Z,15.36
2022-09-05T07:33:39.102Z,15.35
2022-09-05T07:36:11.211Z,15.33
2022-09-05T07:38:52.040Z,15.31
2022-09-05T07:41:31.842Z,15.30
2022-09-05T07:44:39.156Z,15.25
2022-09-05T07:47:14.193Z,15.22
2022-09-05T07:49:48.044Z,15.19
2022-09-05T07:56:48.139Z,15.21
2022-09-05T07:57:00.270Z,15.22
2022-09-05T07:58:15.307Z,15.24
2022-09-05T08:00:44.320Z,15.27
2022-09-05T08:03:13.830Z,15.25
2022-09-05T08:05:55.809Z,15.22
2022-09-05T08:08:32.290Z,15.28
2022-09-05T08:11:24.096Z,15.26
2022-09-05T08:14:44.493Z,15.29
2022-09-05T08:17:07.556Z,15.32
2022-09-05T08:19:42.996Z,15.37
2022-09-05T08:22:18.739Z,15.42
2022-09-05T08:25:17.279Z,15.47
2022-09-05T08:27:58.091Z,15.47
2022-09-05T08:30:27.916Z,15.47
2022-09-05T08:33:11.227Z,15.43
2022-09-05T08:35:44.949Z,15.42
2022-09-05T08:38:14.894Z,15.46
2022-09-05T08:40:53.100Z,15.45
2022-09-05T08:46:39.657Z,15.44
2022-09-05T08:46:50.889Z,15.43
2022-09-05T08:49:49.977Z,15.40
2022-09-05T08:52:40.715Z,15.41
2022-09-05T08:55:14.486Z,15.36
2022-09-05T08:58:02.817Z,15.34
2022-09-05T09:00:37.576Z,15.32
2022-09-05T09:03:35.879Z,15.31
2022-09-05T09:06:16.474Z,15.53
2022-09-05T09:09:12.154Z,15.41
2022-09-05T09:11:46.901Z,15.45
2022-09-05T09:14:53.996Z,15.46
2022-09-05T09:17:26.916Z,15.44
2022-09-05T09:20:17.994Z,15.42
2022-09-05T09:23:04.382Z,15.44
2022-09-05T09:25:53.320Z,15.43
2022-09-05T09:28:49.404Z,15.44
2022-09-05T09:31:36.227Z,15.43
2022-09-05T09:34:08.719Z,15.42
2022-09-05T09:36:44.525Z,15.40
2022-09-05T09:39:39.355Z,15.40
2022-09-05T09:42:32.631Z,15.46
2022-09-05T09:45:27.951Z,15.55
2022-09-05T09:48:10.571Z,15.58
2022-09-05T09:51:00.659Z,15.63
2022-09-05T09:53:45.817Z,15.65
2022-09-05T09:56:27.921Z,15.56
2022-09-05T09:59:30.367Z,15.51
2022-09-05T10:02:00.953Z,15.49
2022-09-05T10:10:38.734Z,15.52
2022-09-05T10:10:46.918Z,15.59
2022-09-05T10:14:50.629Z,15.82
2022-09-05T10:17:25.415Z,15.78
2022-09-05T10:20:09.573Z,15.80
2022-09-05T10:23:05.762Z,15.96
2022-09-05T10:26:01.439Z,15.87
2022-09-05T10:29:11.863Z,16.09
2022-09-05T10:35:07.536Z,15.87
2022-09-05T10:35:20.888Z,15.80
2022-09-05T10:37:52.189Z,15.97
2022-09-05T10:40:23.400Z,15.97
2022-09-05T10:43:01.499Z,15.96
2022-09-05T10:45:58.211Z,15.76
2022-09-05T10:48:30.220Z,15.66
2022-09-05T10:51:27.192Z,15.69
2022-09-05T10:54:26.148Z,15.80
2022-09-05T10:57:22.838Z,15.74
2022-09-05T11:02:28.888Z,15.78
2022-09-05T11:02:57.878Z,15.74
2022-09-05T11:05:32.303Z,15.69
2022-09-05T11:08:13.289Z,15.76
2022-09-05T11:10:46.837Z,15.70
2022-09-05T11:13:32.134Z,15.75
2022-09-05T11:16:12.736Z,15.80
2022-09-05T11:18:55.878Z,15.63
2022-09-05T11:21:43.630Z,15.62
2022-09-05T11:24:39.350Z,15.51
2022-09-05T11:27:30.981Z,15.48
2022-09-05T11:30:00.571Z,15.48
2022-09-05T11:38:47.699Z,15.68
2022-09-05T11:40:08.285Z,15.66
2022-09-05T11:40:10.956Z,15.45
2022-09-05T11:41:40.962Z,15.52
2022-09-05T11:44:27.314Z,15.48
2022-09-05T11:47:27.962Z,15.59
2022-09-05T11:50:27.631Z,15.52
2022-09-05T11:53:09.195Z,15.57
2022-09-05T11:56:00.098Z,15.59
2022-09-05T11:58:44.493Z,15.55
2022-09-05T12:01:43.292Z,15.62
2022-09-05T12:04:42.893Z,15.62
2022-09-05T12:07:31.879Z,15.57
2022-09-05T12:10:45.675Z,15.62
2022-09-05T12:13:34.730Z,15.69
2022-09-05T12:16:17.499Z,15.77
2022-09-05T12:18:58.052Z,15.76
2022-09-05T12:21:41.547Z,15.89
2022-09-05T12:25:15.727Z,15.81
2022-09-05T12:27:43.885Z,15.78
2022-09-05T12:36:01.711Z,15.82
2022-09-05T12:36:13.161Z,15.80
2022-09-05T12:40:58.479Z,15.81
2022-09-05T12:41:41.894Z,15.77
2022-09-05T12:42:08.265Z,15.82
2022-09-05T12:44:59.034Z,15.92
2022-09-05T12:47:30.175Z,15.92
2022-09-05T12:50:14.583Z,15.95
2022-09-05T12:52:46.517Z,16.02
2022-09-05T12:55:22.546Z,16.05
2022-09-05T13:02:58.280Z,15.95
2022-09-05T13:03:13.538Z,16.27
2022-09-05T13:03:59.426Z,16.15
2022-09-05T13:06:31.129Z,16.14
2022-09-05T13:09:05.486Z,16.16
2022-09-05T13:14:58.510Z,16.24
2022-09-05T13:14:58.825Z,16.34
2022-09-05T13:17:44.337Z,16.12
2022-09-05T13:20:37.526Z,16.11
2022-09-05T13:23:16.233Z,16.16
2022-09-05T13:25:45.543Z,16.10
2022-09-05T13:28:15.018Z,16.14
2022-09-05T13:36:17.280Z,16.09
2022-09-05T13:38:15.620Z,16.04
2022-09-05T13:38:19.616Z,16.11
2022-09-05T13:39:36.372Z,16.25
2022-09-05T13:42:03.745Z,16.28
2022-09-05T13:44:38.451Z,16.28
2022-09-05T13:47:30.534Z,16.41
2022-09-05T13:50:22.351Z,16.52
2022-09-05T13:53:14.821Z,16.52
2022-09-05T13:55:42.300Z,16.75
2022-09-05T13:58:51.078Z,16.93
2022-09-05T14:02:25.131Z,16.94
2022-09-05T14:05:19.596Z,16.89
2022-09-05T14:08:09.368Z,16.82
2022-09-05T14:11:02.269Z,16.90
2022-09-05T14:13:52.911Z,16.83
2022-09-05T14:16:25.509Z,16.78
2022-09-05T14:19:12.063Z,16.74
2022-09-05T14:21:42.384Z,16.73
2022-09-05T14:24:27.943Z,16.89
2022-09-05T14:27:03.049Z,16.96
2022-09-05T14:29:58.584Z,17.10
2022-09-05T14:37:35.484Z,17.06
2022-09-05T14:37:41.286Z,17.37
2022-09-05T14:40:00.645Z,17.13
2022-09-05T14:42:54.384Z,17.15
2022-09-05T14:45:30.736Z,17.04
2022-09-05T14:48:24.892Z,16.92
2022-09-05T14:51:09.654Z,16.86
2022-09-05T14:58:39.900Z,16.83
2022-09-05T15:02:54.995Z,16.78
2022-09-05T15:03:00.498Z,16.86
2022-09-05T15:05:28.680Z,17.05
2022-09-05T15:08:26.993Z,16.92
2022-09-05T15:12:20.313Z,16.46
2022-09-05T15:14:06.440Z,16.44
2022-09-05T15:16:40.287Z,16.41
2022-09-05T15:19:10.269Z,16.58
2022-09-05T15:21:41.419Z,16.38
2022-09-05T15:24:14.772Z,16.31
2022-09-05T15:26:59.448Z,16.47
2022-09-05T15:29:31.404Z,16.21
2022-09-05T15:32:26.542Z,16.16
2022-09-05T15:34:56.322Z,16.06
2022-09-05T15:37:37.742Z,16.14
2022-09-05T15:40:23.014Z,16.11
2022-09-05T15:43:02.396Z,16.00
2022-09-05T15:45:37.316Z,16.17
2022-09-05T15:48:21.642Z,16.16
2022-09-05T15:50:55.093Z,16.13
2022-09-05T15:53:42.150Z,16.11
2022-09-05T15:56:11.626Z,15.84
2022-09-05T15:58:55.351Z,15.92
2022-09-05T16:01:48.563Z,16.07
2022-09-05T16:10:06.078Z,15.89
2022-09-05T16:10:35.547Z,15.85
2022-09-05T16:10:41.146Z,15.96
2022-09-05T16:12:46.727Z,16.05
2022-09-05T16:17:57.686Z,16.05
2022-09-05T16:23:14.502Z,15.83
2022-09-05T16:23:23.411Z,16.01
2022-09-05T16:24:04.200Z,15.84
2022-09-05T16:26:38.539Z,15.75
2022-09-05T16:29:26.457Z,15.73
2022-09-05T16:31:59.890Z,15.71
2022-09-05T16:34:31.990Z,15.97
2022-09-05T16:37:08.218Z,15.81
2022-09-05T16:39:40.514Z,15.85
2022-09-05T16:42:18.808Z,15.79
2022-09-05T16:45:06.613Z,15.91
2022-09-05T16:47:43.066Z,15.83
2022-09-05T16:50:59.386Z,15.84
2022-09-05T16:53:54.378Z,16.03
2022-09-05T16:56:47.008Z,15.96
2022-09-05T16:59:19.182Z,15.88
2022-09-05T17:01:46.144Z,15.94
2022-09-05T17:04:22.526Z,15.85
2022-09-05T17:06:57.294Z,15.95
2022-09-05T17:09:27.201Z,16.03
2022-09-05T17:12:02.033Z,16.06
2022-09-05T17:14:34.788Z,15.85
2022-09-05T17:17:36.534Z,15.75
2022-09-05T17:20:14.569Z,15.77
2022-09-05T17:27:19.943Z,15.74
2022-09-05T17:29:27.749Z,15.72
2022-09-05T17:29:49.042Z,15.94
2022-09-05T17:31:55.703Z,15.74
2022-09-05T17:34:25.317Z,15.57
2022-09-05T17:37:12.697Z,15.62
2022-09-05T17:39:55.487Z,15.65
2022-09-05T17:42:56.104Z,15.54
2022-09-05T17:45:25.169Z,15.66
2022-09-05T17:47:57.649Z,15.47
2022-09-05T17:50:28.121Z,15.54
2022-09-05T17:53:25.197Z,15.64
2022-09-05T17:55:52.874Z,15.59
2022-09-05T17:58:49.292Z,15.61
2022-09-05T18:01:26.688Z,15.50
2022-09-05T18:04:08.555Z,15.46
2022-09-05T18:06:52.843Z,15.42
2022-09-05T18:09:47.974Z,15.46
2022-09-05T18:13:13.902Z,15.44
2022-09-05T18:15:22.652Z,15.59
2022-09-05T18:17:49.302Z,15.43
2022-09-05T18:20:36.318Z,15.69
2022-09-05T18:23:37.342Z,15.66
2022-09-05T18:26:20.847Z,15.40
2022-09-05T18:29:14.450Z,15.42
2022-09-05T18:31:43.649Z,15.36
2022-09-05T18:34:14.673Z,15.43
2022-09-05T18:36:55.827Z,15.36
2022-09-05T18:39:25.451Z,15.44
2022-09-05T18:41:57.119Z,15.52
2022-09-05T18:44:47.465Z,15.44
2022-09-05T18:47:33.031Z,15.42
2022-09-05T18:50:25.415Z,15.34
2022-09-05T18:52:51.791Z,15.52
2022-09-05T18:56:12.364Z,15.42
2022-09-05T18:58:51.829Z,15.34
2022-09-05T19:01:34.620Z,15.47
2022-09-05T19:04:06.048Z,15.38
2022-09-05T19:06:39.943Z,15.40
2022-09-05T19:09:14.070Z,15.38
2022-09-05T19:11:57.899Z,15.34
2022-09-05T19:14:42.970Z,15.46
2022-09-05T19:17:16.248Z,15.32
2022-09-05T19:20:30.541Z,15.32
2022-09-05T19:23:10.341Z,15.29
2022-09-05T19:25:46.343Z,15.35
2022-09-05T19:31:15.300Z,15.44
2022-09-05T19:36:52.841Z,15.30
2022-09-05T19:37:25.475Z,15.23
2022-09-05T19:37:30.075Z,15.25
2022-09-05T19:42:08.145Z,15.21
2022-09-05T19:47:28.900Z,15.20
2022-09-05T19:47:30.684Z,15.38
2022-09-05T19:48:34.412Z,15.25
2022-09-05T19:51:59.369Z,15.39
2022-09-05T19:54:35.111Z,15.21
2022-09-05T19:57:01.854Z,15.23
2022-09-05T19:59:38.290Z,15.26
2022-09-05T20:02:22.138Z,15.25
2022-09-05T20:04:52.935Z,15.26
2022-09-05T20:07:31.118Z,15.30
2022-09-05T20:10:01.496Z,15.34
2022-09-05T20:12:29.781Z,15.39
2022-09-05T20:14:57.056Z,15.41
2022-09-05T20:17:28.809Z,15.42
2022-09-05T20:20:15.283Z,15.47
2022-09-05T20:23:03.010Z,15.50
2022-09-05T20:25:37.312Z,15.50
2022-09-05T20:28:10.307Z,15.49
2022-09-05T20:30:41.591Z,15.48
2022-09-05T20:33:14.333Z,15.50
2022-09-05T20:43:09.122Z,15.49
2022-09-05T20:43:11.457Z,15.48
2022-09-05T20:43:18.772Z,15.49
2022-09-05T20:44:24.983Z,15.49
2022-09-05T20:54:07.871Z,15.52
2022-09-05T20:54:08.220Z,15.49
2022-09-05T20:54:17.371Z,15.50
2022-09-05T20:56:22.722Z,15.50
2022-09-05T20:58:51.159Z,15.49
2022-09-05T21:01:22.983Z,15.52
2022-09-05T21:04:01.755Z,15.51
2022-09-05T21:06:33.859Z,15.49
2022-09-05T21:09:25.159Z,15.52
2022-09-05T21:11:54.955Z,15.55
2022-09-05T21:14:23.333Z,15.55
2022-09-05T21:17:15.018Z,15.55
2022-09-05T21:19:52.071Z,15.56
2022-09-05T21:22:21.012Z,15.59
2022-09-05T21:24:48.671Z,15.60
2022-09-05T21:27:24.255Z,15.59
2022-09-05T21:29:58.644Z,15.57
2022-09-05T21:32:38.284Z,15.58
2022-09-05T21:35:34.469Z,15.56
2022-09-05T21:37:58.761Z,15.54
2022-09-05T21:40:25.455Z,15.55
2022-09-05T21:45:57.579Z,15.50
2022-09-05T21:47:46.944Z,15.46
2022-09-05T21:48:27.738Z,15.44
2022-09-05T21:51:02.592Z,15.42
2022-09-05T21:59:16.463Z,15.41
2022-09-05T21:59:20.377Z,15.44
2022-09-05T21:59:36.953Z,15.47
2022-09-05T22:02:07.173Z,15.59
2022-09-05T22:04:40.054Z,15.52
2022-09-05T22:07:14.533Z,15.54
2022-09-05T22:09:41.377Z,15.58
2022-09-05T22:12:26.959Z,15.63
2022-09-05T22:14:55.937Z,15.61
2022-09-05T22:17:24.717Z,15.59
2022-09-05T22:19:51.434Z,15.56
2022-09-05T22:22:19.008Z,15.57
2022-09-05T22:25:03.018Z,15.57
2022-09-05T22:27:33.039Z,15.56
2022-09-05T22:30:01.898Z,15.55
2022-09-05T22:32:34.310Z,15.53
2022-09-05T22:35:28.071Z,15.54
2022-09-05T22:38:00.186Z,15.54
2022-09-05T22:40:28.948Z,15.50
2022-09-05T22:42:57.296Z,15.48
2022-09-05T22:45:24.760Z,15.46
2022-09-05T22:47:51.659Z,15.46
2022-09-05T22:50:18.830Z,15.48
2022-09-05T22:52:45.677Z,15.46
2022-09-05T22:55:12.493Z,15.44
2022-09-05T22:57:40.319Z,15.45
2022-09-05T23:00:08.422Z,15.49
2022-09-05T23:02:35.284Z,15.51
2022-09-05T23:05:03.659Z,15.57
2022-09-05T23:07:32.179Z,15.52
2022-09-05T23:09:59.412Z,15.50
2022-09-05T23:12:26.220Z,15.52
2022-09-05T23:14:53.153Z,15.50
2022-09-05T23:17:19.906Z,15.53
2022-09-05T23:19:46.583Z,15.59
2022-09-05T23:22:13.343Z,15.60
2022-09-05T23:24:40.012Z,15.57
2022-09-05T23:27:07.053Z,15.55
2022-09-05T23:29:33.790Z,15.52
2022-09-05T23:32:00.568Z,15.58
2022-09-05T23:34:27.324Z,15.55
2022-09-05T23:36:53.994Z,15.54
2022-09-05T23:39:20.726Z,15.54
2022-09-05T23:41:47.445Z,15.54
2022-09-05T23:44:14.283Z,15.61
2022-09-05T23:46:41.013Z,15.57
2022-09-05T23:49:07.852Z,15.57
2022-09-05T23:51:34.794Z,15.64
2022-09-05T23:54:01.534Z,15.56
2022-09-05T23:56:28.323Z,15.63
2022-09-05T23:58:55.048Z,15.55
